Wetterdaten: Woche 13.11.17 - 19.11.17 (KW46)
Datum Zeit Temp. I. Temp. A. Feuchte I. Feuchte A. Luftdruck Regen Wind Richtung Taupunkt Windchill
13.11.2017 00:00 23,5 °C 2,5 °C 50 % 94 % 1003,3 hPa 0,0 l/m² 5,6 km/h (2 Bft) W 1,6 °C 1,8 °C
13.11.2017 01:00 23,5 °C 2,1 °C 50 % 94 % 1003,9 hPa 0,0 l/m² 4,0 km/h (1 Bft) W 1,2 °C 2,0 °C
13.11.2017 02:00 23,5 °C 2,0 °C 50 % 94 % 1004,7 hPa 0,0 l/m² 1,7 km/h (1 Bft) W 1,2 °C 2,0 °C
13.11.2017 03:00 23,5 °C 2,3 °C 50 % 94 % 1005,1 hPa 0,0 l/m² 1,6 km/h (1 Bft) W-SW 1,4 °C 2,3 °C
13.11.2017 04:00 23,6 °C 2,2 °C 50 % 94 % 1005,8 hPa 0,0 l/m² 2,1 km/h (1 Bft) W 1,3 °C 2,2 °C
13.11.2017 05:00 23,6 °C 1,8 °C 49 % 94 % 1006,8 hPa 0,0 l/m² 1,1 km/h (1 Bft) W 0,9 °C 1,8 °C
13.11.2017 06:00 23,6 °C 3,3 °C 49 % 95 % 1007,6 hPa 0,0 l/m² 4,5 km/h (1 Bft) W 2,6 °C 2,9 °C
13.11.2017 07:00 23,6 °C 3,5 °C 47 % 95 % 1008,2 hPa 0,0 l/m² 4,6 km/h (1 Bft) W 2,8 °C 3,1 °C
13.11.2017 08:00 23,5 °C 3,7 °C 47 % 95 % 1009,2 hPa 0,0 l/m² 4,5 km/h (1 Bft) W 3,0 °C 3,3 °C
13.11.2017 09:00 23,5 °C 4,8 °C 47 % 94 % 1010,1 hPa 0,0 l/m² 7,9 km/h (2 Bft) NW 4,0 °C 3,0 °C
13.11.2017 10:00 23,5 °C 5,5 °C 47 % 94 % 1011,1 hPa 0,0 l/m² 8,6 km/h (2 Bft) NW 4,6 °C 3,7 °C
13.11.2017 11:00 23,5 °C 5,9 °C 48 % 92 % 1011,9 hPa 0,0 l/m² 10,5 km/h (2 Bft) W-NW 4,8 °C 2,9 °C
13.11.2017 12:00 23,5 °C 6,1 °C 48 % 90 % 1012,5 hPa 0,0 l/m² 8,3 km/h (2 Bft) N-NW 4,6 °C 4,4 °C
13.11.2017 13:00 23,4 °C 6,1 °C 48 % 89 % 1013,1 hPa 0,0 l/m² 6,5 km/h (2 Bft) W-NW 4,3 °C 5,2 °C
13.11.2017 14:00 23,4 °C 6,0 °C 48 % 89 % 1013,9 hPa 0,0 l/m² 6,3 km/h (2 Bft) W 4,3 °C 5,0 °C
13.11.2017 15:00 23,4 °C 5,8 °C 48 % 88 % 1014,5 hPa 0,0 l/m² 5,3 km/h (1 Bft) W 4,0 °C 5,4 °C
13.11.2017 16:00 23,3 °C 4,3 °C 48 % 89 % 1015,1 hPa 0,0 l/m² 3,0 km/h (1 Bft) W 2,6 °C 4,2 °C
13.11.2017 17:00 23,4 °C 2,3 °C 49 % 91 % 1015,7 hPa 0,0 l/m² 3,8 km/h (1 Bft) W 0,9 °C 2,3 °C
13.11.2017 18:00 23,3 °C 1,7 °C 47 % 92 % 1016,5 hPa 0,0 l/m² 2,4 km/h (1 Bft) W 0,5 °C 1,7 °C
13.11.2017 19:00 23,2 °C 0,9 °C 45 % 92 % 1017,4 hPa 0,0 l/m² 1,7 km/h (1 Bft) SW -0,2 °C 0,9 °C
13.11.2017 20:00 23,3 °C 0,1 °C 47 % 93 % 1017,8 hPa 0,0 l/m² 0,4 km/h (0 Bft) O-SO -0,9 °C 0,1 °C
13.11.2017 21:00 23,6 °C 0,1 °C 49 % 93 % 1018,1 hPa 0,0 l/m² 0,7 km/h (0 Bft) W-SW -0,9 °C 0,1 °C
13.11.2017 22:00 23,9 °C 0,1 °C 48 % 94 % 1018,4 hPa 0,0 l/m² 0,6 km/h (0 Bft) SW -0,8 °C 0,1 °C
13.11.2017 23:00 23,8 °C -0,1 °C 48 % 94 % 1018,7 hPa 0,0 l/m² 0,1 km/h (0 Bft) S -0,9 °C -0,1 °C
14.11.2017 00:00 23,6 °C -0,0 °C 48 % 94 % 1018,9 hPa 0,0 l/m² 0,8 km/h (0 Bft) S -0,8 °C -0,0 °C
14.11.2017 01:00 23,5 °C 0,1 °C 48 % 94 % 1019,4 hPa 0,0 l/m² 0,2 km/h (0 Bft) SO -0,7 °C 0,1 °C
14.11.2017 02:00 23,6 °C 0,5 °C 48 % 94 % 1019,7 hPa 0,0 l/m² 0,1 km/h (0 Bft) SO -0,4 °C 0,5 °C
14.11.2017 03:00 23,5 °C 0,1 °C 48 % 94 % 1019,8 hPa 0,0 l/m² 0,2 km/h (0 Bft) S -0,8 °C 0,1 °C
14.11.2017 04:00 23,4 °C -0,4 °C 48 % 94 % 1020,1 hPa 0,0 l/m² 0,1 km/h (0 Bft) S -1,2 °C -0,4 °C
14.11.2017 05:00 23,4 °C -0,5 °C 48 % 94 % 1020,5 hPa 0,0 l/m² 0,0 km/h (0 Bft) S -1,3 °C -0,5 °C
14.11.2017 06:00 23,3 °C -1,0 °C 47 % 95 % 1020,9 hPa 0,0 l/m² 0,8 km/h (0 Bft) S -1,7 °C -1,0 °C
14.11.2017 07:00 23,3 °C -1,3 °C 45 % 95 % 1021,3 hPa 0,0 l/m² 2,0 km/h (1 Bft) O -2,0 °C -1,3 °C
14.11.2017 08:00 23,3 °C -0,4 °C 45 % 95 % 1021,7 hPa 0,0 l/m² 0,9 km/h (0 Bft) O-NO -1,1 °C -0,4 °C
14.11.2017 09:00 23,9 °C 2,3 °C 45 % 95 % 1021,9 hPa 0,0 l/m² 0,6 km/h (0 Bft) O-NO 1,6 °C 2,3 °C
14.11.2017 10:00 24,5 °C 6,0 °C 44 % 95 % 1022,2 hPa 0,0 l/m² 10,4 km/h (2 Bft) W-SW 5,2 °C 2,7 °C
14.11.2017 11:00 24,8 °C 7,6 °C 44 % 92 % 1022,0 hPa 0,0 l/m² 20,0 km/h (4 Bft) W-SW 6,4 °C 0,3 °C
14.11.2017 12:00 24,8 °C 8,3 °C 44 % 85 % 1021,9 hPa 0,0 l/m² 18,5 km/h (3 Bft) W-SW 6,0 °C 1,9 °C
14.11.2017 13:00 24,7 °C 9,1 °C 45 % 81 % 1021,6 hPa 0,0 l/m² 19,6 km/h (3 Bft) SW 6,0 °C 2,5 °C
14.11.2017 14:00 24,4 °C 8,4 °C 45 % 80 % 1021,3 hPa 0,0 l/m² 16,3 km/h (3 Bft) SW 5,2 °C 2,8 °C
14.11.2017 15:00 24,1 °C 7,8 °C 45 % 81 % 1021,4 hPa 0,0 l/m² 12,4 km/h (2 Bft) SW 4,8 °C 3,9 °C
14.11.2017 16:00 23,9 °C 7,1 °C 46 % 83 % 1021,5 hPa 0,0 l/m² 14,8 km/h (3 Bft) SW 4,4 °C 2,0 °C
14.11.2017 17:00 23,7 °C 6,7 °C 46 % 84 % 1021,6 hPa 0,0 l/m² 15,4 km/h (3 Bft) SW 4,1 °C 1,1 °C
14.11.2017 18:00 23,6 °C 6,5 °C 47 % 84 % 1021,9 hPa 0,0 l/m² 16,8 km/h (3 Bft) SW 4,0 °C 0,3 °C
14.11.2017 19:00 23,6 °C 6,4 °C 47 % 84 % 1022,3 hPa 0,0 l/m² 13,9 km/h (3 Bft) S-SW 3,9 °C 1,6 °C
14.11.2017 20:00 23,5 °C 6,5 °C 47 % 84 % 1022,5 hPa 0,0 l/m² 10,8 km/h (2 Bft) SW 4,0 °C 3,5 °C
14.11.2017 21:00 23,4 °C 6,5 °C 47 % 85 % 1022,8 hPa 0,0 l/m² 18,3 km/h (3 Bft) SW 4,2 °C -0,3 °C
14.11.2017 22:00 23,6 °C 6,5 °C 47 % 85 % 1023,0 hPa 0,0 l/m² 16,3 km/h (3 Bft) SW 4,1 °C 0,5 °C
14.11.2017 23:00 23,5 °C 6,3 °C 47 % 86 % 1023,2 hPa 0,0 l/m² 13,9 km/h (3 Bft) SW 4,2 °C 1,5 °C
15.11.2017 00:00 23,4 °C 6,3 °C 48 % 87 % 1023,3 hPa 0,0 l/m² 11,2 km/h (2 Bft) SW 4,3 °C 3,0 °C
15.11.2017 01:00 23,2 °C 6,4 °C 49 % 88 % 1023,6 hPa 0,0 l/m² 10,8 km/h (2 Bft) SW 4,5 °C 3,3 °C
15.11.2017 02:00 23,2 °C 6,4 °C 50 % 88 % 1023,6 hPa 0,0 l/m² 7,7 km/h (2 Bft) SW 4,6 °C 5,0 °C
15.11.2017 03:00 23,2 °C 6,5 °C 50 % 88 % 1023,6 hPa 0,0 l/m² 9,8 km/h (2 Bft) W-SW 4,7 °C 4,0 °C
15.11.2017 04:00 23,1 °C 6,4 °C 50 % 88 % 1023,5 hPa 0,0 l/m² 8,3 km/h (2 Bft) SW 4,6 °C 4,7 °C
15.11.2017 05:00 23,0 °C 6,4 °C 50 % 88 % 1023,5 hPa 0,0 l/m² 10,5 km/h (2 Bft) SW 4,6 °C 3,4 °C
15.11.2017 06:00 23,0 °C 6,4 °C 49 % 89 % 1023,8 hPa 0,0 l/m² 6,7 km/h (2 Bft) W-SW 4,7 °C 5,2 °C
15.11.2017 07:00 22,9 °C 6,4 °C 48 % 89 % 1024,2 hPa 0,0 l/m² 5,2 km/h (1 Bft) SW 4,7 °C 6,1 °C
15.11.2017 08:00 22,8 °C 6,4 °C 47 % 89 % 1024,5 hPa 0,0 l/m² 9,5 km/h (2 Bft) SW 4,7 °C 4,0 °C
15.11.2017 09:00 22,9 °C 6,6 °C 48 % 91 % 1024,8 hPa 0,0 l/m² 7,2 km/h (2 Bft) S-SW 5,2 °C 5,6 °C
15.11.2017 10:00 22,9 °C 7,6 °C 48 % 91 % 1024,8 hPa 0,0 l/m² 13,7 km/h (3 Bft) SW 6,1 °C 3,1 °C
15.11.2017 11:00 22,9 °C 8,1 °C 48 % 89 % 1024,8 hPa 0,0 l/m² 12,1 km/h (2 Bft) SW 6,4 °C 4,5 °C
15.11.2017 12:00 22,9 °C 8,3 °C 48 % 89 % 1024,8 hPa 0,0 l/m² 8,2 km/h (2 Bft) W-SW 6,7 °C 6,7 °C
15.11.2017 13:00 22,9 °C 9,1 °C 48 % 89 % 1024,4 hPa 0,0 l/m² 6,9 km/h (2 Bft) SW 7,4 °C 7,8 °C
15.11.2017 14:00 23,1 °C 10,8 °C 48 % 86 % 1024,1 hPa 0,0 l/m² 8,9 km/h (2 Bft) W-SW 8,6 °C 9,0 °C
15.11.2017 15:00 23,1 °C 9,9 °C 48 % 86 % 1024,2 hPa 0,0 l/m² 11,7 km/h (2 Bft) SW 7,7 °C 6,6 °C
15.11.2017 16:00 22,9 °C 8,7 °C 48 % 88 % 1024,5 hPa 0,0 l/m² 8,7 km/h (2 Bft) SW 6,9 °C 7,0 °C
15.11.2017 17:00 22,8 °C 8,1 °C 48 % 89 % 1024,6 hPa 0,0 l/m² 3,4 km/h (1 Bft) S-SW 6,5 °C 8,1 °C
15.11.2017 18:00 22,7 °C 7,7 °C 49 % 90 % 1024,9 hPa 0,0 l/m² 5,5 km/h (2 Bft) S-SW 6,2 °C 7,2 °C
15.11.2017 19:00 22,8 °C 7,3 °C 49 % 91 % 1024,9 hPa 0,0 l/m² 5,6 km/h (2 Bft) S-SW 6,0 °C 7,1 °C
15.11.2017 20:00 22,8 °C 6,9 °C 50 % 92 % 1025,1 hPa 0,0 l/m² 3,8 km/h (1 Bft) SW 5,7 °C 6,9 °C
15.11.2017 21:00 23,1 °C 6,6 °C 50 % 92 % 1025,3 hPa 0,0 l/m² 1,0 km/h (0 Bft) SW 5,4 °C 6,6 °C
15.11.2017 22:00 23,3 °C 6,5 °C 50 % 92 % 1025,1 hPa 0,0 l/m² 3,3 km/h (1 Bft) SW 5,3 °C 6,5 °C
15.11.2017 23:00 23,2 °C 6,4 °C 50 % 93 % 1025,0 hPa 0,0 l/m² 0,7 km/h (0 Bft) SW 5,4 °C 6,4 °C
16.11.2017 00:00 23,0 °C 6,4 °C 49 % 93 % 1024,9 hPa 0,0 l/m² 0,0 km/h (0 Bft) S-SW 5,4 °C 6,4 °C
16.11.2017 01:00 23,0 °C 6,4 °C 49 % 93 % 1024,7 hPa 0,0 l/m² 0,9 km/h (0 Bft) S 5,4 °C 6,4 °C
16.11.2017 02:00 22,9 °C 6,3 °C 49 % 93 % 1024,5 hPa 0,0 l/m² 1,2 km/h (1 Bft) S-SO 5,2 °C 6,3 °C
16.11.2017 03:00 22,8 °C 6,2 °C 49 % 93 % 1024,3 hPa 0,0 l/m² 0,4 km/h (0 Bft) S-SO 5,1 °C 6,2 °C
16.11.2017 04:00 22,8 °C 5,8 °C 49 % 93 % 1024,2 hPa 0,0 l/m² 1,2 km/h (1 Bft) S-SO 4,8 °C 5,8 °C
16.11.2017 05:00 22,8 °C 5,6 °C 49 % 93 % 1024,1 hPa 0,0 l/m² 0,3 km/h (0 Bft) S-SO 4,5 °C 5,6 °C
16.11.2017 06:00 22,8 °C 4,7 °C 49 % 93 % 1024,0 hPa 0,0 l/m² 1,6 km/h (1 Bft) S-SO 3,7 °C 4,7 °C
16.11.2017 07:00 22,7 °C 3,7 °C 48 % 93 % 1024,0 hPa 0,0 l/m² 1,2 km/h (1 Bft) SW 2,7 °C 3,7 °C
16.11.2017 08:00 22,8 °C 3,4 °C 48 % 94 % 1024,4 hPa 0,0 l/m² 0,0 km/h (0 Bft) SW 2,5 °C 3,4 °C
16.11.2017 09:00 22,9 °C 4,4 °C 48 % 94 % 1024,2 hPa 0,0 l/m² 1,5 km/h (1 Bft) SW 3,6 °C 4,3 °C
16.11.2017 10:00 23,1 °C 6,1 °C 48 % 94 % 1024,1 hPa 0,0 l/m² 8,1 km/h (2 Bft) SW 5,2 °C 4,7 °C
16.11.2017 11:00 23,0 °C 6,7 °C 48 % 93 % 1023,7 hPa 0,0 l/m² 10,2 km/h (2 Bft) S 5,8 °C 4,0 °C
16.11.2017 12:00 23,0 °C 7,2 °C 48 % 92 % 1023,0 hPa 0,0 l/m² 7,6 km/h (2 Bft) S 6,0 °C 6,0 °C
16.11.2017 13:00 22,9 °C 7,3 °C 48 % 91 % 1022,6 hPa 0,0 l/m² 8,4 km/h (2 Bft) S 5,9 °C 5,7 °C
16.11.2017 14:00 22,8 °C 7,3 °C 48 % 90 % 1022,1 hPa 0,0 l/m² 11,0 km/h (2 Bft) S-SO 5,8 °C 4,2 °C
16.11.2017 15:00 22,8 °C 7,5 °C 48 % 90 % 1021,6 hPa 0,0 l/m² 7,7 km/h (2 Bft) S 5,9 °C 6,3 °C
16.11.2017 16:00 22,8 °C 6,7 °C 48 % 90 % 1021,5 hPa 0,0 l/m² 6,9 km/h (2 Bft) SW 5,1 °C 5,7 °C
16.11.2017 17:00 22,7 °C 6,0 °C 48 % 91 % 1021,5 hPa 0,0 l/m² 10,9 km/h (2 Bft) W-SW 4,6 °C 2,8 °C
16.11.2017 18:00 22,7 °C 5,5 °C 49 % 92 % 1021,2 hPa 0,0 l/m² 13,8 km/h (3 Bft) S-SW 4,4 °C 0,6 °C
16.11.2017 19:00 22,8 °C 5,3 °C 49 % 93 % 1021,4 hPa 0,0 l/m² 15,1 km/h (3 Bft) S-SW 4,3 °C -0,4 °C
16.11.2017 20:00 22,6 °C 5,5 °C 49 % 93 % 1021,5 hPa 0,0 l/m² 12,0 km/h (2 Bft) W-SW 4,4 °C 1,6 °C
16.11.2017 21:00 22,7 °C 5,2 °C 49 % 93 % 1021,6 hPa 0,0 l/m² 13,6 km/h (3 Bft) SW 4,2 °C 0,2 °C
16.11.2017 22:00 23,0 °C 5,4 °C 49 % 93 % 1021,5 hPa 0,0 l/m² 12,2 km/h (2 Bft) SW 4,3 °C 1,2 °C
16.11.2017 23:00 23,1 °C 5,4 °C 49 % 93 % 1021,5 hPa 0,0 l/m² 8,1 km/h (2 Bft) S-SW 4,3 °C 3,7 °C
17.11.2017 00:00 22,9 °C 5,1 °C 49 % 93 % 1021,2 hPa 0,0 l/m² 6,3 km/h (2 Bft) SW 4,1 °C 4,4 °C
17.11.2017 01:00 22,7 °C 5,4 °C 49 % 93 % 1021,2 hPa 0,0 l/m² 4,5 km/h (1 Bft) W-SW 4,4 °C 5,4 °C
17.11.2017 02:00 22,7 °C 5,8 °C 49 % 93 % 1021,2 hPa 0,5 l/m² 3,8 km/h (1 Bft) SW 4,8 °C 5,7 °C
17.11.2017 03:00 22,6 °C 5,8 °C 49 % 93 % 1021,3 hPa 0,0 l/m² 5,6 km/h (2 Bft) SW 4,8 °C 5,5 °C
17.11.2017 04:00 22,6 °C 5,9 °C 49 % 94 % 1021,4 hPa 0,0 l/m² 5,0 km/h (1 Bft) W-SW 5,0 °C 5,7 °C
17.11.2017 05:00 22,6 °C 6,1 °C 49 % 94 % 1021,8 hPa 0,0 l/m² 5,0 km/h (1 Bft) W-SW 5,2 °C 5,9 °C
17.11.2017 06:00 22,5 °C 6,3 °C 49 % 94 % 1022,1 hPa 0,0 l/m² 4,6 km/h (1 Bft) W-SW 5,4 °C 6,2 °C
17.11.2017 07:00 22,4 °C 6,7 °C 48 % 94 % 1022,7 hPa 0,0 l/m² 3,8 km/h (1 Bft) W-SW 5,8 °C 6,7 °C
17.11.2017 08:00 22,4 °C 7,0 °C 48 % 94 % 1023,5 hPa 0,0 l/m² 1,7 km/h (1 Bft) NW 6,1 °C 7,0 °C
17.11.2017 09:00 22,4 °C 7,0 °C 48 % 94 % 1024,0 hPa 0,0 l/m² 2,7 km/h (1 Bft) W 6,1 °C 6,9 °C
17.11.2017 10:00 22,6 °C 8,0 °C 48 % 94 % 1024,4 hPa 0,0 l/m² 6,3 km/h (2 Bft) N-NW 7,0 °C 7,2 °C
17.11.2017 11:00 23,2 °C 9,4 °C 48 % 89 % 1024,5 hPa 0,0 l/m² 6,4 km/h (2 Bft) NW 7,6 °C 8,6 °C
17.11.2017 12:00 23,6 °C 10,5 °C 47 % 79 % 1024,4 hPa 0,0 l/m² 7,1 km/h (2 Bft) NW 7,0 °C 9,5 °C
17.11.2017 13:00 23,8 °C 10,4 °C 47 % 73 % 1024,3 hPa 0,0 l/m² 5,9 km/h (2 Bft) N-NW 5,8 °C 9,9 °C
17.11.2017 14:00 23,8 °C 10,7 °C 47 % 70 % 1024,1 hPa 0,0 l/m² 6,6 km/h (2 Bft) N-NW 5,4 °C 9,8 °C
17.11.2017 15:00 23,7 °C 9,3 °C 47 % 73 % 1024,2 hPa 0,0 l/m² 1,8 km/h (1 Bft) N-NW 4,7 °C 9,3 °C
17.11.2017 16:00 23,4 °C 5,9 °C 47 % 80 % 1024,1 hPa 0,0 l/m² 0,3 km/h (0 Bft) N-NW 2,8 °C 5,9 °C
17.11.2017 17:00 23,1 °C 3,2 °C 47 % 86 % 1024,1 hPa 0,0 l/m² 0,2 km/h (0 Bft) N-NW 1,2 °C 3,2 °C
17.11.2017 18:00 23,0 °C 1,7 °C 48 % 89 % 1023,9 hPa 0,0 l/m² 0,3 km/h (0 Bft) N-NW 0,1 °C 1,7 °C
17.11.2017 19:00 22,9 °C 1,3 °C 48 % 91 % 1023,9 hPa 0,0 l/m² 0,0 km/h (0 Bft) N-NW -0,1 °C 1,3 °C
17.11.2017 20:00 22,8 °C 1,2 °C 48 % 92 % 1023,9 hPa 0,0 l/m² 1,1 km/h (0 Bft) N-NW 0,0 °C 1,2 °C
17.11.2017 21:00 22,8 °C 0,8 °C 48 % 92 % 1023,8 hPa 0,0 l/m² 0,0 km/h (0 Bft) N-NW -0,3 °C 0,8 °C
17.11.2017 22:00 22,8 °C -0,1 °C 48 % 93 % 1023,5 hPa 0,0 l/m² 0,4 km/h (0 Bft) N-NW -1,1 °C -0,1 °C
17.11.2017 23:00 22,9 °C -0,6 °C 48 % 93 % 1022,8 hPa 0,0 l/m² 0,4 km/h (0 Bft) N-NW -1,6 °C -0,6 °C
18.11.2017 00:00 22,8 °C -0,9 °C 48 % 93 % 1022,3 hPa 0,0 l/m² 0,7 km/h (0 Bft) N-NO -1,9 °C -0,9 °C
18.11.2017 01:00 22,9 °C -1,2 °C 48 % 93 % 1022,0 hPa 0,0 l/m² 0,2 km/h (0 Bft) O -2,2 °C -1,2 °C
18.11.2017 02:00 22,9 °C -1,3 °C 48 % 93 % 1021,8 hPa 0,0 l/m² 1,0 km/h (0 Bft) O -2,2 °C -1,3 °C
18.11.2017 03:00 22,8 °C -0,4 °C 48 % 94 % 1021,0 hPa 0,0 l/m² 4,9 km/h (1 Bft) O -1,3 °C -1,7 °C
18.11.2017 04:00 22,9 °C 0,6 °C 47 % 94 % 1020,4 hPa 0,0 l/m² 6,3 km/h (2 Bft) SW -0,2 °C -0,3 °C
18.11.2017 05:00 22,9 °C 1,0 °C 47 % 94 % 1019,9 hPa 0,0 l/m² 3,0 km/h (1 Bft) W 0,1 °C 0,9 °C
18.11.2017 06:00 22,8 °C 1,3 °C 47 % 95 % 1019,4 hPa 0,0 l/m² 7,8 km/h (2 Bft) SW 0,5 °C -1,0 °C
18.11.2017 07:00 22,9 °C 2,0 °C 47 % 95 % 1018,7 hPa 0,5 l/m² 15,2 km/h (3 Bft) SW 1,2 °C -4,6 °C
18.11.2017 08:00 22,9 °C 2,8 °C 47 % 95 % 1018,6 hPa 0,0 l/m² 13,9 km/h (3 Bft) SW 2,0 °C -2,8 °C
18.11.2017 09:00 22,8 °C 3,3 °C 47 % 95 % 1018,1 hPa 0,0 l/m² 10,3 km/h (2 Bft) SW 2,6 °C 0,1 °C
18.11.2017 10:00 22,6 °C 4,0 °C 47 % 94 % 1017,4 hPa 0,0 l/m² 9,4 km/h (2 Bft) S-SW 3,1 °C 1,5 °C
18.11.2017 11:00 22,6 °C 5,1 °C 47 % 90 % 1016,2 hPa 0,0 l/m² 18,0 km/h (3 Bft) S-SW 3,5 °C -2,1 °C
18.11.2017 12:00 22,5 °C 5,5 °C 47 % 83 % 1015,3 hPa 0,0 l/m² 21,4 km/h (4 Bft) SW 2,8 °C -2,9 °C
18.11.2017 13:00 22,4 °C 5,5 °C 47 % 81 % 1014,4 hPa 0,0 l/m² 22,1 km/h (4 Bft) SW 2,5 °C -3,1 °C
18.11.2017 14:00 22,4 °C 5,6 °C 47 % 79 % 1013,2 hPa 0,0 l/m² 29,2 km/h (5 Bft) SW 2,3 °C -5,2 °C
18.11.2017 15:00 22,3 °C 5,7 °C 47 % 78 % 1012,2 hPa 0,0 l/m² 29,3 km/h (5 Bft) SW 2,2 °C -5,1 °C
18.11.2017 16:00 22,2 °C 5,2 °C 47 % 80 % 1012,0 hPa 0,0 l/m² 27,6 km/h (5 Bft) SW 1,9 °C -5,4 °C
18.11.2017 17:00 22,2 °C 5,2 °C 47 % 80 % 1011,8 hPa 0,0 l/m² 27,0 km/h (4 Bft) SW 2,1 °C -5,1 °C
18.11.2017 18:00 22,2 °C 4,9 °C 47 % 83 % 1012,1 hPa 0,0 l/m² 18,4 km/h (3 Bft) W-SW 2,2 °C -2,2 °C
18.11.2017 19:00 22,2 °C 4,5 °C 47 % 86 % 1011,8 hPa 0,0 l/m² 14,1 km/h (3 Bft) W-SW 2,4 °C -0,7 °C
18.11.2017 20:00 22,1 °C 4,3 °C 47 % 87 % 1012,0 hPa 0,0 l/m² 22,0 km/h (4 Bft) W-SW 2,4 °C -4,6 °C
18.11.2017 21:00 22,1 °C 3,7 °C 47 % 89 % 1012,1 hPa 0,0 l/m² 17,9 km/h (3 Bft) W-SW 2,0 °C -3,7 °C
18.11.2017 22:00 22,1 °C 3,4 °C 47 % 89 % 1011,9 hPa 0,0 l/m² 19,9 km/h (4 Bft) W-SW 1,7 °C -5,0 °C
18.11.2017 23:00 22,0 °C 3,4 °C 47 % 89 % 1011,5 hPa 0,0 l/m² 20,4 km/h (4 Bft) W-SW 1,8 °C -5,1 °C
19.11.2017 00:00 22,0 °C 3,0 °C 47 % 89 % 1011,3 hPa 0,0 l/m² 19,6 km/h (3 Bft) SW 1,4 °C -5,5 °C
19.11.2017 01:00 22,0 °C 2,9 °C 47 % 90 % 1010,9 hPa 0,0 l/m² 18,0 km/h (3 Bft) SW 1,4 °C -4,8 °C
19.11.2017 02:00 22,0 °C 3,6 °C 47 % 89 % 1010,4 hPa 0,0 l/m² 24,2 km/h (4 Bft) SW 2,0 °C -6,3 °C
19.11.2017 03:00 21,9 °C 3,0 °C 47 % 89 % 1009,8 hPa 0,0 l/m² 24,4 km/h (4 Bft) SW 1,4 °C -7,3 °C
19.11.2017 04:00 21,8 °C 2,4 °C 47 % 90 % 1009,7 hPa 0,0 l/m² 18,6 km/h (3 Bft) SW 1,0 °C -5,7 °C
19.11.2017 05:00 21,8 °C 2,5 °C 47 % 91 % 1009,4 hPa 0,0 l/m² 19,7 km/h (3 Bft) SW 1,2 °C -6,0 °C
19.11.2017 06:00 21,8 °C 2,5 °C 47 % 90 % 1008,9 hPa 0,0 l/m² 20,7 km/h (4 Bft) SW 1,1 °C -6,4 °C
19.11.2017 07:00 21,8 °C 3,0 °C 47 % 90 % 1008,7 hPa 0,0 l/m² 23,2 km/h (4 Bft) SW 1,6 °C -6,9 °C
19.11.2017 08:00 21,9 °C 3,4 °C 46 % 89 % 1008,7 hPa 0,0 l/m² 20,2 km/h (4 Bft) W-SW 1,7 °C -5,2 °C
19.11.2017 09:00 21,9 °C 4,3 °C 46 % 89 % 1008,6 hPa 0,0 l/m² 22,9 km/h (4 Bft) W-SW 2,6 °C -4,9 °C
19.11.2017 10:00 21,9 °C 6,0 °C 46 % 86 % 1008,6 hPa 0,0 l/m² 25,9 km/h (4 Bft) W-SW 3,9 °C -3,7 °C
19.11.2017 11:00 21,8 °C 6,7 °C 46 % 84 % 1008,5 hPa 0,0 l/m² 25,9 km/h (4 Bft) W-SW 4,1 °C -2,8 °C
19.11.2017 12:00 21,8 °C 6,5 °C 46 % 84 % 1008,6 hPa 0,5 l/m² 24,6 km/h (4 Bft) W-SW 4,0 °C -2,7 °C
19.11.2017 13:00 21,8 °C 6,4 °C 46 % 87 % 1008,6 hPa 0,0 l/m² 21,5 km/h (4 Bft) W 4,4 °C -1,6 °C
19.11.2017 14:00 22,1 °C 6,4 °C 46 % 85 % 1008,8 hPa 0,0 l/m² 18,0 km/h (3 Bft) W-SW 4,2 °C -0,1 °C
19.11.2017 15:00 22,4 °C 6,4 °C 46 % 86 % 1008,9 hPa 0,0 l/m² 20,1 km/h (4 Bft) W 4,3 °C -1,2 °C
19.11.2017 16:00 22,4 °C 6,2 °C 46 % 85 % 1009,4 hPa 0,0 l/m² 20,9 km/h (4 Bft) W 3,8 °C -1,6 °C
19.11.2017 17:00 22,1 °C 5,1 °C 46 % 87 % 1009,9 hPa 0,0 l/m² 20,7 km/h (4 Bft) W 3,0 °C -3,3 °C
19.11.2017 18:00 22,1 °C 5,2 °C 48 % 88 % 1010,0 hPa 1,0 l/m² 18,2 km/h (3 Bft) W 3,5 °C -1,7 °C
19.11.2017 19:00 22,3 °C 5,3 °C 49 % 90 % 1010,5 hPa 1,0 l/m² 21,5 km/h (4 Bft) W-NW 3,7 °C -2,8 °C
19.11.2017 20:00 22,3 °C 5,3 °C 49 % 89 % 1011,1 hPa 0,0 l/m² 24,2 km/h (4 Bft) W 3,7 °C -4,1 °C
19.11.2017 21:00 22,6 °C 5,0 °C 49 % 90 % 1011,9 hPa 0,0 l/m² 22,7 km/h (4 Bft) W 3,4 °C -4,0 °C
19.11.2017 22:00 22,8 °C 5,4 °C 50 % 89 % 1012,5 hPa 0,0 l/m² 25,4 km/h (4 Bft) W-NW 3,7 °C -4,3 °C
19.11.2017 23:00 22,5 °C 5,3 °C 49 % 88 % 1013,1 hPa 0,0 l/m² 23,4 km/h (4 Bft) W-NW 3,5 °C -3,7 °C
Min-Datum _ 19.11.17 18.11.17 14.11.17 17.11.17 13.11.17 - 18.11.17 - 18.11.17 19.11.17
_ Min-Zeit 12:37 02:13 12:01 14:25 00:01 - 06:01 - 02:13 03:39
Minimum _ 21,7 °C -1,5 °C 44 % 69 % 1002,7 hPa - 0,0 km/h (0 Bft) - -2,5 °C -9,8 °C
Max-Datum _ 14.11.17 15.11.17 19.11.17 14.11.17 15.11.17 19.11.17 19.11.17 - 15.11.17 15.11.17
_ Max-Zeit 12:01 14:27 22:01 10:01 21:53 18:01 21:59 - 14:27 14:37
Maximum _ 24,9 °C 11,3 °C 50 % 96 % 1025,5 hPa 1,0 l/m² 40,3 km/h
W (6 Bft)
- 9,0 °C 11,0 °C
Durchschnitt _ 23,0 °C 4,8 °C 48 % 90 % 1018,5 hPa #3,6 l/m² 9,6 km/h (2 Bft) SW 3,2 °C 1,7 °C
© 2009 Mathias Hoßbach